Time;durP1;ratioP1;P1;durP2;ratioP2;P2;SDS_P1;SDS_P2;PMS_P1;PMS_P2;Temp;Humidity;BMP_temperature;BMP_pressure;BME280_temperature;BME280_humidity;BME280_pressure;Samples;Min_cycle;Max_cycle;Signal;HPM_P1;HPM_P2
2021/06/30 00:00:57;;;;;;;3.88;3.35;;;;;;;10.08;68.06;95033.19;5050019;28;20108;-63
2021/06/30 00:03:22;;;;;;;5.28;2.80;;;;;;;9.88;68.81;95040.09;5050885;28;20124;-63
2021/06/30 00:05:48;;;;;;;3.75;2.83;;;;;;;10.12;68.05;95043.44;5048010;28;20077;-67
2021/06/30 00:08:13;;;;;;;3.55;3.05;;;;;;;9.80;68.52;95041.84;5046959;28;20108;-63
2021/06/30 00:10:41;;;;;;;3.22;2.50;;;;;;;9.85;68.79;95047.44;5050586;28;20081;-63
2021/06/30 00:13:06;;;;;;;5.57;3.70;;;;;;;10.34;67.06;95046.94;5045327;28;20098;-62
2021/06/30 00:15:32;;;;;;;4.03;2.33;;;;;;;10.15;67.30;95051.88;5044974;28;20478;-62
2021/06/30 00:17:57;;;;;;;3.42;2.63;;;;;;;10.99;64.24;95054.00;5047443;28;20074;-62
2021/06/30 00:20:23;;;;;;;2.80;2.60;;;;;;;10.58;65.59;95060.88;5051410;28;20569;-62
2021/06/30 00:22:48;;;;;;;5.07;4.47;;;;;;;11.28;63.98;95051.34;5046005;28;20391;-63
2021/06/30 00:25:15;;;;;;;3.58;2.70;;;;;;;11.41;62.85;95055.91;5045868;28;20101;-63
2021/06/30 00:27:42;;;;;;;4.22;3.67;;;;;;;11.42;63.32;95053.06;5044340;28;20566;-63
2021/06/30 00:30:08;;;;;;;5.43;2.97;;;;;;;11.36;62.96;95060.00;5051277;28;20076;-63
2021/06/30 00:32:34;;;;;;;2.60;2.40;;;;;;;10.38;65.98;95050.88;5045181;28;20097;-63
2021/06/30 00:34:59;;;;;;;3.45;3.15;;;;;;;10.94;63.88;95048.41;5044417;28;20069;-62
2021/06/30 00:37:25;;;;;;;3.05;2.83;;;;;;;10.61;65.36;95053.31;5044575;28;20453;-63
2021/06/30 00:39:50;;;;;;;4.40;2.67;;;;;;;10.36;66.64;95055.53;5050026;28;20112;-63
2021/06/30 00:42:16;;;;;;;3.50;2.97;;;;;;;10.40;66.16;95059.47;5060238;28;20477;-63
2021/06/30 00:44:42;;;;;;;5.22;3.28;;;;;;;11.00;64.28;95063.63;5049445;28;20554;-62
2021/06/30 00:47:07;;;;;;;4.43;3.25;;;;;;;11.40;62.97;95068.44;5049309;28;20077;-63
2021/06/30 00:49:33;;;;;;;3.28;2.97;;;;;;;11.48;62.45;95075.44;5049600;28;20581;-63
2021/06/30 00:51:58;;;;;;;3.83;3.33;;;;;;;11.69;61.71;95076.38;5053210;28;20458;-63
2021/06/30 00:54:23;;;;;;;4.82;3.50;;;;;;;11.70;61.71;95076.16;5052222;28;20430;-62
2021/06/30 00:56:49;;;;;;;4.65;4.18;;;;;;;12.22;60.13;95073.09;5059103;28;20468;-63
2021/06/30 00:59:14;;;;;;;4.07;3.40;;;;;;;12.40;59.46;95075.16;5072021;28;20108;-63
2021/06/30 01:01:40;;;;;;;7.03;4.50;;;;;;;12.51;59.14;95065.72;5052177;28;20084;-63
2021/06/30 01:04:06;;;;;;;3.60;3.30;;;;;;;12.08;59.97;95063.41;5057993;28;20448;-63
2021/06/30 01:06:31;;;;;;;5.15;3.50;;;;;;;12.07;59.85;95059.88;5061118;28;20081;-63
2021/06/30 01:09:03;;;;;;;3.80;3.42;;;;;;;12.46;58.65;95057.53;5054242;28;20722;-63
2021/06/30 01:11:28;;;;;;;4.68;3.65;;;;;;;12.61;58.13;95061.84;5052796;28;20629;-63
2021/06/30 01:13:54;;;;;;;4.50;3.35;;;;;;;12.31;59.15;95056.88;5057220;28;20103;-63
2021/06/30 01:16:19;;;;;;;3.33;3.03;;;;;;;12.54;58.30;95064.50;5059426;28;20135;-63
2021/06/30 01:18:45;;;;;;;4.10;3.70;;;;;;;12.69;57.89;95056.31;5059836;28;20085;-63
2021/06/30 01:21:10;;;;;;;4.80;3.95;;;;;;;12.43;58.82;95055.25;5054446;28;20098;-63
2021/06/30 01:23:36;;;;;;;4.78;3.85;;;;;;;11.58;60.87;95061.75;5048025;28;20117;-63
2021/06/30 01:26:02;;;;;;;3.67;3.30;;;;;;;11.61;60.95;95059.50;5048387;28;20089;-63
2021/06/30 01:28:27;;;;;;;4.45;3.40;;;;;;;11.60;60.59;95057.03;5051571;28;20150;-63
2021/06/30 01:30:53;;;;;;;4.93;3.35;;;;;;;11.03;61.92;95057.09;5055258;28;20219;-63
2021/06/30 01:33:18;;;;;;;3.15;2.92;;;;;;;10.76;63.32;95055.06;5051410;28;20102;-63
2021/06/30 01:35:44;;;;;;;3.72;3.10;;;;;;;11.46;60.71;95064.16;5049593;28;20112;-62
2021/06/30 01:38:09;;;;;;;3.40;3.10;;;;;;;11.20;61.44;95047.00;5050502;28;20119;-63
2021/06/30 01:40:35;;;;;;;3.83;2.60;;;;;;;11.21;61.10;95053.97;5050121;28;20109;-63
2021/06/30 01:43:00;;;;;;;3.22;2.92;;;;;;;11.29;61.15;95045.81;5052908;28;20077;-63
2021/06/30 01:45:26;;;;;;;3.67;2.80;;;;;;;11.51;60.27;95041.22;5051335;28;20283;-63
2021/06/30 01:47:52;;;;;;;3.50;2.83;;;;;;;11.63;59.70;95040.66;5061301;28;20225;-63
2021/06/30 01:50:18;;;;;;;3.88;3.15;;;;;;;11.78;59.20;95040.50;5049969;28;20180;-63
2021/06/30 01:52:43;;;;;;;4.45;3.42;;;;;;;11.40;60.21;95047.09;5056965;28;20146;-63
2021/06/30 01:55:10;;;;;;;3.67;3.38;;;;;;;11.83;58.88;95038.03;5050168;28;20073;-64
2021/06/30 01:57:45;;;;;;;4.05;3.00;;;;;;;11.52;59.52;95042.84;5054302;28;20107;-63
2021/06/30 02:00:11;;;;;;;3.95;3.40;;;;;;;11.90;58.66;95044.22;5050824;28;20582;-63
2021/06/30 02:02:37;;;;;;;6.95;4.03;;;;;;;11.28;60.41;95052.16;5054467;28;20115;-63
2021/06/30 02:05:14;;;;;;;3.55;3.20;;;;;;;12.11;57.67;95052.31;5053284;28;20109;-63
2021/06/30 02:07:41;;;;;;;3.78;3.45;;;;;;;12.02;57.80;95046.31;5058376;28;20105;-63
2021/06/30 02:10:10;;;;;;;4.25;3.45;;;;;;;11.37;59.49;95048.34;5056898;28;20080;-63
2021/06/30 02:12:36;;;;;;;4.57;3.25;;;;;;;11.94;58.21;95038.50;5055382;28;20097;-63
2021/06/30 02:15:09;;;;;;;5.10;3.70;;;;;;;11.63;58.90;95049.47;5053447;28;20333;-63
2021/06/30 02:17:35;;;;;;;5.18;3.53;;;;;;;11.26;59.63;95048.88;5056545;28;20081;-63
2021/06/30 02:20:00;;;;;;;8.60;3.50;;;;;;;10.87;61.00;95057.22;5061235;28;20231;-63
2021/06/30 02:22:26;;;;;;;5.70;4.30;;;;;;;10.89;61.35;95057.00;5059855;28;20088;-63
2021/06/30 02:24:53;;;;;;;8.15;4.18;;;;;;;11.49;59.02;95047.78;5064186;28;20111;-63
2021/06/30 02:27:18;;;;;;;4.75;3.97;;;;;;;11.13;59.63;95054.94;5046249;28;20097;-62
2021/06/30 02:29:44;;;;;;;4.70;3.45;;;;;;;10.74;60.75;95060.59;5047138;28;20589;-63
2021/06/30 02:32:09;;;;;;;8.75;4.30;;;;;;;10.57;61.79;95049.38;5051387;28;20101;-63
2021/06/30 02:34:35;;;;;;;7.63;5.43;;;;;;;10.58;62.22;95056.34;5057109;28;20088;-63
2021/06/30 02:37:00;;;;;;;6.05;5.10;;;;;;;10.95;60.12;95047.44;5052277;28;20586;-63
2021/06/30 02:39:26;;;;;;;4.15;3.35;;;;;;;10.26;62.43;95050.53;5058259;28;20113;-62
2021/06/30 02:41:51;;;;;;;6.20;4.75;;;;;;;10.34;62.61;95044.28;5053134;28;20104;-62
2021/06/30 02:44:17;;;;;;;4.38;3.70;;;;;;;10.39;61.85;95049.84;5059348;28;20455;-63
2021/06/30 02:46:42;;;;;;;6.05;4.75;;;;;;;10.33;62.16;95051.44;5046892;28;20085;-63
2021/06/30 02:49:07;;;;;;;6.10;4.72;;;;;;;10.21;62.92;95058.28;5052706;28;20461;-63
2021/06/30 02:51:33;;;;;;;7.13;5.68;;;;;;;10.60;61.53;95056.16;5056258;28;20566;-63
2021/06/30 02:53:58;;;;;;;5.53;4.30;;;;;;;10.26;62.34;95045.22;5049588;28;20108;-63
2021/06/30 02:56:24;;;;;;;5.80;4.97;;;;;;;10.36;62.18;95043.06;5051419;28;20619;-63
2021/06/30 02:58:49;;;;;;;6.47;5.55;;;;;;;10.60;61.21;95056.16;5065840;28;20593;-63
2021/06/30 03:01:15;;;;;;;6.15;5.00;;;;;;;10.88;60.81;95061.50;5048877;28;20112;-63
2021/06/30 03:03:40;;;;;;;6.65;4.93;;;;;;;11.19;58.69;95051.47;5062918;28;20109;-63
2021/06/30 03:06:06;;;;;;;5.90;4.50;;;;;;;10.86;59.26;95055.56;5055976;28;20089;-62
2021/06/30 03:08:31;;;;;;;5.82;3.97;;;;;;;11.09;58.33;95043.03;5055229;28;20111;-63
2021/06/30 03:10:57;;;;;;;4.45;3.67;;;;;;;11.32;57.96;95041.94;5053041;28;20080;-63
2021/06/30 03:13:22;;;;;;;5.57;3.90;;;;;;;11.20;58.05;95034.50;5053336;28;20077;-63
2021/06/30 03:15:48;;;;;;;4.95;4.13;;;;;;;10.91;58.98;95040.84;5049811;28;20515;-63
2021/06/30 03:18:14;;;;;;;5.50;4.07;;;;;;;11.03;58.30;95047.28;5062235;28;20146;-63
2021/06/30 03:20:39;;;;;;;5.90;4.75;;;;;;;11.50;56.64;95033.41;5052435;28;20101;-63
2021/06/30 03:23:05;;;;;;;4.60;3.88;;;;;;;11.88;55.48;95034.78;5061849;28;20081;-63
2021/06/30 03:25:30;;;;;;;4.85;4.35;;;;;;;11.85;55.34;95021.84;5050856;28;20430;-63
2021/06/30 03:27:55;;;;;;;4.97;3.50;;;;;;;11.97;55.37;95027.44;5054709;28;20490;-63
2021/06/30 03:30:21;;;;;;;4.35;2.80;;;;;;;12.12;55.15;95024.63;5059005;28;20589;-63
2021/06/30 03:32:46;;;;;;;3.85;3.30;;;;;;;12.26;53.98;95028.13;5055407;28;20101;-63
2021/06/30 03:35:12;;;;;;;3.30;3.00;;;;;;;12.18;54.40;95025.66;5051572;28;20089;-63
2021/06/30 03:37:37;;;;;;;2.92;2.67;;;;;;;12.13;54.73;95026.25;5055959;28;20445;-63
2021/06/30 03:40:03;;;;;;;4.43;3.45;;;;;;;12.11;54.48;95034.44;5053451;28;20116;-63
2021/06/30 03:42:29;;;;;;;6.88;3.85;;;;;;;12.11;54.26;95030.97;5062042;28;20085;-63
2021/06/30 03:44:54;;;;;;;4.15;3.30;;;;;;;12.23;54.01;95037.38;5047706;28;20163;-63
2021/06/30 03:47:20;;;;;;;3.13;2.83;;;;;;;12.39;53.97;95036.16;5046383;28;20321;-63
2021/06/30 03:49:45;;;;;;;3.80;3.25;;;;;;;12.48;53.79;95046.63;5056502;28;20077;-63
2021/06/30 03:52:10;;;;;;;3.85;3.50;;;;;;;12.65;54.66;95044.41;5052266;28;20442;-63
2021/06/30 03:54:36;;;;;;;4.80;3.80;;;;;;;12.76;53.50;95051.78;5046404;28;20584;-63
2021/06/30 03:57:01;;;;;;;4.18;3.35;;;;;;;12.85;52.70;95049.72;5046973;28;20108;-63
2021/06/30 03:59:27;;;;;;;4.43;3.60;;;;;;;12.95;54.13;95043.16;5046681;28;20164;-63
2021/06/30 04:01:52;;;;;;;3.65;3.10;;;;;;;13.02;52.24;95050.13;5048019;28;20081;-66
2021/06/30 04:04:19;;;;;;;3.45;3.15;;;;;;;13.16;53.01;95047.47;5050531;28;20101;-63
2021/06/30 04:06:44;;;;;;;2.90;2.70;;;;;;;13.31;53.19;95041.88;5052546;28;20084;-63
2021/06/30 04:09:10;;;;;;;3.15;2.90;;;;;;;13.47;52.40;95053.13;5056050;28;20109;-63
2021/06/30 04:11:35;;;;;;;4.90;2.97;;;;;;;13.61;52.60;95051.25;5049573;28;20097;-63
2021/06/30 04:14:01;;;;;;;5.68;2.63;;;;;;;13.79;52.68;95050.56;5050514;28;20066;-63
2021/06/30 04:16:26;;;;;;;5.13;2.70;;;;;;;13.98;52.21;95048.03;5050812;28;20137;-64
2021/06/30 04:18:52;;;;;;;4.93;3.10;;;;;;;14.12;52.35;95038.91;5056534;28;20429;-63
2021/06/30 04:21:17;;;;;;;4.20;3.05;;;;;;;14.25;51.15;95043.38;5058425;28;20108;-63
2021/06/30 04:23:43;;;;;;;2.92;2.60;;;;;;;14.32;51.21;95041.44;5053535;28;20574;-63
2021/06/30 04:26:08;;;;;;;4.10;2.72;;;;;;;14.48;50.88;95047.31;5066982;28;20534;-63
2021/06/30 04:28:34;;;;;;;3.25;2.90;;;;;;;14.56;50.32;95046.25;5059659;28;20101;-63
2021/06/30 04:30:59;;;;;;;4.82;2.90;;;;;;;14.61;50.42;95049.06;5060216;28;20077;-63
2021/06/30 04:33:24;;;;;;;4.20;2.50;;;;;;;14.77;50.22;95054.97;5056620;28;20081;-64
2021/06/30 04:35:50;;;;;;;3.17;2.80;;;;;;;14.95;49.00;95054.19;5057754;28;20632;-64
2021/06/30 04:38:15;;;;;;;5.28;2.90;;;;;;;15.07;48.72;95046.25;5057812;28;20438;-63
2021/06/30 04:40:41;;;;;;;3.30;3.00;;;;;;;15.10;48.59;95041.25;5058157;28;20580;-64
2021/06/30 04:43:06;;;;;;;3.35;2.58;;;;;;;15.21;48.97;95046.94;5058330;28;20582;-63
2021/06/30 04:45:32;;;;;;;2.92;2.63;;;;;;;15.23;48.70;95058.28;5062298;28;20077;-64
2021/06/30 04:47:57;;;;;;;2.97;2.72;;;;;;;15.28;48.73;95047.72;5049009;28;20098;-64
2021/06/30 04:50:23;;;;;;;3.30;2.97;;;;;;;15.35;49.16;95051.16;5049986;28;20083;-64
2021/06/30 04:52:48;;;;;;;2.88;2.42;;;;;;;15.48;48.97;95055.56;5051988;28;20250;-64
2021/06/30 04:55:13;;;;;;;2.65;2.42;;;;;;;15.58;48.45;95057.75;5050994;28;20070;-64
2021/06/30 04:57:39;;;;;;;4.38;2.80;;;;;;;15.60;48.08;95062.84;5050393;28;20357;-63
2021/06/30 05:00:05;;;;;;;3.13;2.60;;;;;;;15.63;48.38;95064.31;5052492;28;20116;-63
2021/06/30 05:02:31;;;;;;;3.00;2.70;;;;;;;15.73;48.18;95064.56;5053181;28;20108;-63
2021/06/30 05:04:56;;;;;;;3.40;2.72;;;;;;;15.77;47.59;95067.66;5057144;28;20410;-63
2021/06/30 05:07:22;;;;;;;4.78;3.10;;;;;;;15.56;47.13;95075.09;5060097;28;20574;-63
2021/06/30 05:09:47;;;;;;;4.57;3.17;;;;;;;14.94;48.71;95071.31;5062119;28;20132;-63
2021/06/30 05:12:13;;;;;;;3.22;2.95;;;;;;;14.95;48.95;95070.28;5056965;28;20105;-63
2021/06/30 05:14:38;;;;;;;6.07;3.80;;;;;;;15.16;47.65;95074.41;5055868;28;20827;-64
2021/06/30 05:17:04;;;;;;;4.93;3.00;;;;;;;15.28;48.47;95073.69;5053747;28;20093;-64
2021/06/30 05:19:29;;;;;;;3.60;3.20;;;;;;;15.40;48.32;95071.13;5056503;28;20105;-63
2021/06/30 05:21:56;;;;;;;2.90;2.65;;;;;;;15.54;48.28;95064.53;5054758;28;20081;-63
2021/06/30 05:24:23;;;;;;;2.90;2.60;;;;;;;15.63;47.94;95070.47;5054637;28;20109;-64
2021/06/30 05:26:48;;;;;;;2.47;2.30;;;;;;;15.65;48.06;95072.94;5054992;28;20166;-64
2021/06/30 05:29:14;;;;;;;3.47;2.58;;;;;;;15.67;47.66;95079.72;5049977;28;20097;-64
2021/06/30 05:31:39;;;;;;;5.25;3.20;;;;;;;15.63;47.18;95081.19;5063623;28;20494;-64
2021/06/30 05:34:04;;;;;;;4.88;3.28;;;;;;;15.56;47.51;95077.75;5055917;28;20492;-64
2021/06/30 05:36:30;;;;;;;3.15;2.88;;;;;;;15.47;47.83;95074.53;5057755;28;20635;-64
2021/06/30 05:38:55;;;;;;;4.53;3.30;;;;;;;15.44;47.45;95075.78;5055083;28;20088;-64
2021/06/30 05:41:21;;;;;;;5.32;3.53;;;;;;;15.33;47.91;95076.56;5048407;28;20447;-63
2021/06/30 05:43:46;;;;;;;4.82;4.35;;;;;;;15.40;47.90;95077.28;5048149;28;20186;-63
2021/06/30 05:46:12;;;;;;;7.10;5.80;;;;;;;15.42;48.29;95064.47;5049054;28;20573;-63
2021/06/30 05:48:37;;;;;;;3.75;3.20;;;;;;;15.49;47.96;95078.66;5049290;28;20416;-63
2021/06/30 05:51:03;;;;;;;4.35;3.95;;;;;;;15.45;48.29;95069.41;5048994;28;20521;-63
2021/06/30 05:53:28;;;;;;;3.38;3.05;;;;;;;15.44;48.45;95067.75;5063492;28;20073;-64
2021/06/30 05:55:53;;;;;;;2.83;2.58;;;;;;;15.52;48.45;95066.63;5048617;28;20116;-62
2021/06/30 05:58:19;;;;;;;2.75;2.55;;;;;;;15.51;48.42;95075.75;5050815;28;20088;-63
2021/06/30 06:00:44;;;;;;;2.83;2.63;;;;;;;15.48;47.88;95073.50;5049667;28;20109;-63
2021/06/30 06:03:10;;;;;;;3.60;3.30;;;;;;;14.97;48.65;95073.56;5053273;28;20096;-63
2021/06/30 06:05:36;;;;;;;3.85;3.45;;;;;;;14.40;49.88;95079.72;5065314;28;20107;-63
2021/06/30 06:08:02;;;;;;;5.10;3.00;;;;;;;15.20;48.22;95078.28;5063446;28;20101;-63
2021/06/30 06:10:28;;;;;;;2.40;2.20;;;;;;;15.17;47.96;95072.56;5055668;28;20085;-63
2021/06/30 06:12:53;;;;;;;2.35;2.17;;;;;;;15.21;48.52;95077.28;5052796;28;20766;-63
2021/06/30 06:15:18;;;;;;;4.00;2.88;;;;;;;15.20;48.54;95072.94;5062136;28;20105;-63
2021/06/30 06:17:44;;;;;;;4.60;2.70;;;;;;;14.41;50.34;95074.13;5053615;28;20069;-63
2021/06/30 06:20:10;;;;;;;2.45;2.30;;;;;;;14.98;49.07;95076.03;5055071;28;20113;-63
2021/06/30 06:22:35;;;;;;;2.88;2.40;;;;;;;15.05;48.96;95065.25;5053873;28;20270;-63
2021/06/30 06:25:02;;;;;;;3.70;2.40;;;;;;;14.85;49.37;95066.25;5055987;28;20113;-63
2021/06/30 06:27:27;;;;;;;2.30;2.10;;;;;;;14.97;49.48;95069.03;5052414;28;20152;-63
2021/06/30 06:29:53;;;;;;;2.35;2.15;;;;;;;15.03;49.46;95070.00;5056121;28;20085;-63
2021/06/30 06:32:18;;;;;;;2.47;2.28;;;;;;;14.55;50.49;95066.03;5054192;28;20164;-63
2021/06/30 06:34:44;;;;;;;2.42;2.20;;;;;;;14.42;51.18;95069.63;5056551;28;20481;-63
2021/06/30 06:37:12;;;;;;;3.85;2.20;;;;;;;14.61;50.52;95065.16;5041164;28;20124;-63
2021/06/30 06:39:38;;;;;;;3.10;2.22;;;;;;;14.38;51.67;95061.19;5055030;28;20133;-63
2021/06/30 06:42:05;;;;;;;2.95;2.42;;;;;;;14.51;51.83;95057.59;5042691;28;20512;-63
2021/06/30 06:44:30;;;;;;;2.50;2.30;;;;;;;14.68;51.62;95049.84;5053756;28;20601;-63
2021/06/30 06:46:55;;;;;;;2.13;1.98;;;;;;;14.85;51.44;95055.50;5048009;28;20558;-63
2021/06/30 06:49:21;;;;;;;4.55;3.53;;;;;;;14.44;52.87;95049.63;5051726;28;20106;-63
2021/06/30 06:51:46;;;;;;;4.75;2.50;;;;;;;14.42;52.19;95046.31;5047221;28;20108;-63
2021/06/30 06:54:12;;;;;;;5.78;4.80;;;;;;;14.20;52.74;95052.03;5045481;28;20085;-63
2021/06/30 06:56:37;;;;;;;2.47;2.33;;;;;;;13.42;54.13;95054.59;5041993;28;20109;-63
2021/06/30 06:59:03;;;;;;;5.95;2.53;;;;;;;14.03;52.66;95051.72;5049603;28;20332;-63
2021/06/30 07:01:28;;;;;;;3.05;2.45;;;;;;;13.42;54.38;95064.47;5042864;28;20085;-63
2021/06/30 07:03:54;;;;;;;4.57;2.42;;;;;;;14.04;52.49;95052.53;5043584;28;20109;-63
2021/06/30 07:06:19;;;;;;;4.03;3.15;;;;;;;13.30;54.77;95061.63;5054225;28;20604;-63
2021/06/30 07:08:44;;;;;;;2.83;2.63;;;;;;;13.91;53.12;95062.25;5045798;28;20098;-63
2021/06/30 07:11:10;;;;;;;7.78;4.75;;;;;;;13.62;53.04;95068.91;5041267;28;20168;-63
2021/06/30 07:13:39;;;;;;;4.68;2.42;;;;;;;13.57;53.63;95066.91;5055514;28;20164;-63
2021/06/30 07:16:05;;;;;;;6.28;2.53;;;;;;;13.82;53.29;95060.84;5045758;28;20110;-63
2021/06/30 07:18:33;;;;;;;4.18;2.72;;;;;;;14.11;52.42;95058.66;5042755;28;20476;-63
2021/06/30 07:21:01;;;;;;;5.45;2.92;;;;;;;13.95;52.77;95058.13;5047527;28;20290;-63
2021/06/30 07:23:26;;;;;;;7.70;4.70;;;;;;;13.70;52.83;95061.50;5045589;28;20105;-63
2021/06/30 07:25:52;;;;;;;3.05;2.40;;;;;;;13.06;54.88;95071.94;5049195;28;20784;-63
2021/06/30 07:28:17;;;;;;;8.90;7.47;;;;;;;13.16;55.67;95066.97;5048009;28;20105;-62
2021/06/30 07:30:43;;;;;;;3.67;2.30;;;;;;;13.61;53.50;95069.97;5046854;28;20608;-63
2021/06/30 07:33:08;;;;;;;3.03;2.47;;;;;;;14.02;52.72;95057.28;5049381;28;20093;-63
2021/06/30 07:35:33;;;;;;;6.60;4.63;;;;;;;14.44;52.79;95054.97;5070175;28;20957;-63
2021/06/30 07:37:59;;;;;;;2.70;2.50;;;;;;;14.51;51.86;95059.47;5054525;28;20104;-63
2021/06/30 07:40:24;;;;;;;5.82;2.53;;;;;;;14.38;51.45;95060.38;5061750;28;20117;-63
2021/06/30 07:42:50;;;;;;;1.63;1.52;;;;;;;14.42;51.34;95056.22;5043414;28;20094;-63
2021/06/30 07:45:15;;;;;;;1.92;1.73;;;;;;;14.26;51.62;95062.91;5047712;28;20348;-63
2021/06/30 07:47:41;;;;;;;2.22;2.03;;;;;;;13.88;52.88;95062.69;5053429;28;20208;-81
2021/06/30 07:50:07;;;;;;;3.78;3.30;;;;;;;13.61;53.73;95077.97;5041842;28;20081;-82
2021/06/30 07:52:32;;;;;;;2.00;1.85;;;;;;;14.00;51.45;95076.22;5055356;28;20101;-82
2021/06/30 07:54:58;;;;;;;1.92;1.80;;;;;;;14.18;51.27;95072.81;5066009;28;20086;-81
2021/06/30 07:57:23;;;;;;;4.20;1.88;;;;;;;14.14;51.63;95079.66;5050886;28;20652;-81
2021/06/30 07:59:49;;;;;;;2.63;2.20;;;;;;;14.01;51.23;95087.75;5068826;28;20183;-81
2021/06/30 08:02:14;;;;;;;1.85;1.50;;;;;;;14.48;50.88;95081.31;5074438;28;20080;-82
2021/06/30 08:04:39;;;;;;;2.65;1.80;;;;;;;14.38;51.19;95084.47;5067519;28;20116;-82
2021/06/30 08:07:05;;;;;;;2.47;2.28;;;;;;;14.51;50.47;95081.69;5082479;28;20074;-82
2021/06/30 08:09:32;;;;;;;3.45;2.40;;;;;;;14.14;51.89;95090.34;5029692;28;20352;-82
2021/06/30 08:11:59;;;;;;;7.45;5.82;;;;;;;14.45;51.71;95094.09;5033755;28;20162;-82
2021/06/30 08:14:24;;;;;;;5.03;4.15;;;;;;;14.50;51.25;95090.78;5050925;28;20081;-82
2021/06/30 08:16:50;;;;;;;8.07;5.85;;;;;;;14.45;51.59;95080.69;5035803;28;20105;-82
2021/06/30 08:19:15;;;;;;;4.38;2.40;;;;;;;14.11;50.96;95084.63;5064389;28;20081;-82
2021/06/30 08:21:41;;;;;;;3.53;2.53;;;;;;;13.82;52.27;95092.94;5048202;28;20118;-82
2021/06/30 08:24:06;;;;;;;2.42;2.10;;;;;;;13.82;52.75;95087.59;5028172;28;20167;-82
2021/06/30 08:26:32;;;;;;;4.13;2.40;;;;;;;14.06;51.44;95093.28;5048642;28;20106;-82
2021/06/30 08:28:58;;;;;;;3.53;2.35;;;;;;;13.80;51.75;95086.97;5052420;28;20599;-82
2021/06/30 08:31:23;;;;;;;2.63;2.17;;;;;;;12.90;54.09;95087.34;5031294;28;20101;-82
2021/06/30 08:33:49;;;;;;;5.00;3.85;;;;;;;13.86;52.65;95088.81;5041881;28;20146;-82
2021/06/30 08:36:14;;;;;;;4.82;1.95;;;;;;;14.19;51.17;95079.84;5031651;28;20116;-82
2021/06/30 08:38:40;;;;;;;6.25;3.72;;;;;;;14.12;51.50;95084.41;5031274;28;20531;-82
2021/06/30 08:41:05;;;;;;;2.88;2.28;;;;;;;13.65;51.76;95095.25;5043614;28;20116;-82
2021/06/30 08:43:31;;;;;;;4.38;2.42;;;;;;;13.21;53.95;95097.59;5038940;28;20113;-82
2021/06/30 08:45:56;;;;;;;3.60;2.30;;;;;;;12.98;54.48;95093.50;5043207;28;20076;-82
2021/06/30 08:48:21;;;;;;;6.00;4.35;;;;;;;12.85;55.09;95092.44;5049432;28;20111;-81
2021/06/30 08:50:47;;;;;;;6.38;2.50;;;;;;;12.64;55.81;95086.28;5032219;28;20425;-82
2021/06/30 08:53:14;;;;;;;10.68;6.47;;;;;;;12.55;56.75;95087.53;5071496;28;20101;-82
2021/06/30 08:55:46;;;;;;;7.07;3.60;;;;;;;11.95;57.47;95090.81;5046906;28;20101;-82
2021/06/30 08:58:14;;;;;;;4.70;2.63;;;;;;;12.12;57.06;95084.16;5032119;28;20081;-81
2021/06/30 09:00:41;;;;;;;7.82;2.70;;;;;;;12.13;56.95;95085.78;5044135;28;20174;-81
2021/06/30 09:03:12;;;;;;;5.55;3.15;;;;;;;11.55;58.49;95100.28;5037740;28;20093;-82
2021/06/30 09:08:37;;;;;;;5.68;2.70;;;;;;;11.64;57.86;95107.13;5074672;28;20097;-81
2021/06/30 09:11:15;;;;;;;3.95;2.60;;;;;;;12.15;57.24;95107.75;5049492;28;20087;-81
2021/06/30 09:13:41;;;;;;;10.85;7.03;;;;;;;12.25;57.31;95112.72;5066036;28;20111;-81
2021/06/30 09:16:06;;;;;;;6.82;2.67;;;;;;;11.55;56.91;95126.94;5072814;28;20104;-81
2021/06/30 09:18:42;;;;;;;3.58;2.60;;;;;;;11.89;57.82;95127.09;5031574;28;20134;-81
2021/06/30 09:21:21;;;;;;;6.55;3.88;;;;;;;12.49;55.05;95117.69;5062893;28;20648;-81
2021/06/30 09:24:02;;;;;;;3.72;2.63;;;;;;;12.94;53.96;95114.44;5044040;28;20112;-81
2021/06/30 09:26:46;;;;;;;2.60;2.25;;;;;;;13.20;53.37;95120.84;5073826;28;20511;-82
2021/06/30 09:29:12;;;;;;;5.65;3.05;;;;;;;13.22;53.94;95116.09;5044869;28;20101;-82
2021/06/30 09:31:42;;;;;;;3.35;3.05;;;;;;;12.72;53.88;95124.50;5060682;28;20109;-82
2021/06/30 09:34:07;;;;;;;6.55;2.30;;;;;;;13.21;52.75;95121.66;5036284;28;20081;-82
2021/06/30 09:36:55;;;;;;;4.97;2.22;;;;;;;13.42;52.80;95107.22;5057827;28;20163;-82
2021/06/30 09:39:21;;;;;;;7.38;4.25;;;;;;;13.92;51.42;95121.94;5054211;28;20085;-82
2021/06/30 09:41:46;;;;;;;2.40;2.20;;;;;;;14.09;51.47;95127.66;5059053;28;20439;-82
2021/06/30 09:44:21;;;;;;;5.60;3.30;;;;;;;14.28;50.72;95125.09;5045572;28;20109;-82
2021/06/30 09:46:47;;;;;;;6.50;3.97;;;;;;;13.27;52.69;95126.19;5064507;28;20555;-82
2021/06/30 09:49:16;;;;;;;7.05;3.78;;;;;;;14.11;52.34;95122.88;5034945;28;20108;-82
2021/06/30 09:51:44;;;;;;;2.83;1.80;;;;;;;14.25;49.03;95114.81;5079922;28;20147;-82
2021/06/30 09:54:10;;;;;;;5.00;2.50;;;;;;;13.38;51.40;95120.22;5050947;28;20093;-68
2021/06/30 09:56:38;;;;;;;2.85;2.13;;;;;;;12.50;54.33;95109.47;5051175;28;20101;-68
2021/06/30 09:59:09;;;;;;;2.53;2.13;;;;;;;13.83;51.63;95106.09;5052451;28;20187;-68
2021/06/30 10:01:35;;;;;;;4.30;2.22;;;;;;;14.67;49.95;95104.47;5049905;28;20839;-68
2021/06/30 10:04:00;;;;;;;2.20;1.92;;;;;;;13.08;51.59;95106.47;5057226;28;20108;-67
2021/06/30 10:06:33;;;;;;;3.65;2.20;;;;;;;13.30;54.23;95112.41;5048576;28;20177;-68
2021/06/30 10:08:59;;;;;;;8.23;4.40;;;;;;;14.53;50.44;95102.91;5050381;28;20774;-67
2021/06/30 10:11:26;;;;;;;3.92;2.20;;;;;;;14.73;49.48;95108.16;5046930;28;20117;-68
2021/06/30 10:13:51;;;;;;;3.80;2.60;;;;;;;14.09;51.50;95111.59;5052246;28;20070;-68
2021/06/30 10:16:18;;;;;;;3.42;2.72;;;;;;;14.83;50.47;95111.19;5049566;28;20637;-68
2021/06/30 10:18:45;;;;;;;3.53;2.10;;;;;;;15.05;49.37;95115.34;5046615;28;20085;-68
2021/06/30 10:21:11;;;;;;;2.60;2.10;;;;;;;14.84;49.86;95107.47;5068855;28;20196;-68
2021/06/30 10:23:37;;;;;;;4.82;3.47;;;;;;;15.16;48.86;95103.91;5042259;28;20166;-68
2021/06/30 10:26:03;;;;;;;2.55;2.20;;;;;;;15.21;49.72;95098.72;5067009;28;20089;-68
2021/06/30 10:28:28;;;;;;;2.97;2.35;;;;;;;15.01;49.36;95098.06;5046171;28;20124;-67
2021/06/30 10:30:54;;;;;;;2.92;2.40;;;;;;;14.68;50.60;95095.38;5032751;28;20112;-68
2021/06/30 10:33:34;;;;;;;3.22;2.10;;;;;;;15.08;48.72;95110.38;5047096;28;20129;-68
2021/06/30 10:36:00;;;;;;;4.65;2.17;;;;;;;15.37;47.26;95104.56;5053639;28;20585;-68
2021/06/30 10:38:53;;;;;;;3.97;2.75;;;;;;;15.08;49.33;95106.88;5049121;28;20101;-67
2021/06/30 10:41:54;;;;;;;2.92;2.25;;;;;;;14.78;48.98;95108.34;5053959;28;20101;-67
2021/06/30 10:44:23;;;;;;;9.38;4.93;;;;;;;14.32;50.37;95115.59;5055597;28;20704;-67
2021/06/30 10:46:48;;;;;;;3.20;2.10;;;;;;;14.87;49.01;95114.25;5051640;28;20091;-67
2021/06/30 10:49:21;;;;;;;3.03;2.20;;;;;;;14.95;49.57;95113.16;5058354;28;20605;-67
2021/06/30 10:51:52;;;;;;;2.90;2.20;;;;;;;15.49;47.18;95108.16;5060571;28;20449;-68
2021/06/30 10:54:46;;;;;;;3.83;2.50;;;;;;;15.23;47.85;95109.22;5040641;28;20076;-68
2021/06/30 10:57:31;;;;;;;2.75;2.10;;;;;;;14.51;49.62;95113.03;5048960;28;20109;-68
2021/06/30 11:00:03;;;;;;;4.00;2.45;;;;;;;14.55;49.29;95109.69;5055278;28;20183;-68
2021/06/30 11:02:33;;;;;;;2.50;2.30;;;;;;;14.81;49.28;95113.25;5044612;28;20073;-69
2021/06/30 11:05:28;;;;;;;2.35;2.03;;;;;;;15.02;48.33;95113.13;5038100;28;20120;-68
2021/06/30 11:07:53;;;;;;;2.45;2.22;;;;;;;14.77;48.80;95117.41;5038366;28;20510;-68
2021/06/30 11:10:21;;;;;;;5.60;3.63;;;;;;;15.20;49.54;95105.09;5052762;28;20074;-68
2021/06/30 11:12:56;;;;;;;2.20;2.00;;;;;;;15.55;46.93;95111.81;5052458;28;20143;-68
2021/06/30 11:15:40;;;;;;;2.15;1.95;;;;;;;14.85;49.44;95116.31;5052825;28;20173;-68
2021/06/30 11:18:11;;;;;;;6.63;4.55;;;;;;;15.66;47.19;95118.31;5055353;28;20108;-69
2021/06/30 11:20:46;;;;;;;4.03;1.98;;;;;;;14.62;50.41;95111.53;5046431;28;20120;-69
2021/06/30 11:23:21;;;;;;;1.95;1.70;;;;;;;15.93;46.44;95118.03;5052984;28;20084;-69
2021/06/30 11:25:48;;;;;;;1.95;1.70;;;;;;;16.43;46.12;95115.38;5052794;28;20592;-69
2021/06/30 11:28:36;;;;;;;3.38;2.63;;;;;;;15.88;47.03;95121.38;5050227;28;20105;-68
2021/06/30 11:31:26;;;;;;;1.60;1.50;;;;;;;16.20;45.69;95123.06;5055689;28;20124;-68
2021/06/30 11:34:13;;;;;;;3.47;2.20;;;;;;;16.03;45.48;95124.72;5045972;28;20077;-68
2021/06/30 11:36:39;;;;;;;;;;;;;;;16.33;45.92;95122.09;5054138;28;20135;-69